createdAt,value
2023-02-25T00:00:19.267Z,94131.41
2023-02-25T00:02:47.404Z,94135.16
2023-02-25T00:05:15.504Z,94140.53
2023-02-25T00:07:43.572Z,94150.44
2023-02-25T00:10:15.269Z,94161.44
2023-02-25T00:12:43.239Z,94146.72
2023-02-25T00:15:13.491Z,94152.59
2023-02-25T00:17:41.224Z,94143.75
2023-02-25T00:20:13.088Z,94164.09
2023-02-25T00:22:41.999Z,94174.81
2023-02-25T00:25:11.814Z,94171.03
2023-02-25T00:27:39.520Z,94172.59
2023-02-25T00:30:08.171Z,94175.81
2023-02-25T00:32:35.942Z,94187.06
2023-02-25T00:35:07.156Z,94177.13
2023-02-25T00:37:34.892Z,94183.78
2023-02-25T00:40:03.448Z,94176.81
2023-02-25T00:42:32.540Z,94181.63
2023-02-25T00:45:00.243Z,94185.91
2023-02-25T00:47:28.021Z,94196.59
2023-02-25T00:49:55.718Z,94203.25
2023-02-25T00:52:23.538Z,94216.09
2023-02-25T00:54:51.437Z,94223.06
2023-02-25T00:57:19.302Z,94221.72
2023-02-25T00:59:48.444Z,94233.19
2023-02-25T01:02:16.191Z,94237.41
2023-02-25T01:04:43.916Z,94228.09
2023-02-25T01:07:11.835Z,94227.81
2023-02-25T01:09:39.699Z,94222.44
2023-02-25T01:12:07.661Z,94220.03
2023-02-25T01:14:35.625Z,94219.22
2023-02-25T01:17:04.719Z,94226.09
2023-02-25T01:19:32.427Z,94232.50
2023-02-25T01:22:00.452Z,94237.91
2023-02-25T01:24:30.348Z,94241.13
2023-02-25T01:27:00.174Z,94241.66
2023-02-25T01:29:30.279Z,94228.81
2023-02-25T01:31:59.845Z,94225.09
2023-02-25T01:34:30.371Z,94215.47
2023-02-25T01:36:58.491Z,94223.22
2023-02-25T01:39:27.423Z,94224.00
2023-02-25T01:41:56.447Z,94224.56
2023-02-25T01:44:25.741Z,94221.91
2023-02-25T01:46:55.201Z,94221.88
2023-02-25T01:49:29.008Z,94222.38
2023-02-25T01:52:04.296Z,94214.66
2023-02-25T01:54:35.512Z,94215.19
2023-02-25T01:57:06.889Z,94219.50
2023-02-25T01:59:37.001Z,94227.25
2023-02-25T02:02:05.058Z,94224.03
2023-02-25T02:04:33.154Z,94226.97
2023-02-25T02:07:02.216Z,94236.31
2023-02-25T02:09:30.405Z,94230.44
2023-02-25T02:11:59.163Z,94221.34
2023-02-25T02:14:30.796Z,94224.84
2023-02-25T02:17:19.391Z,94226.72
2023-02-25T02:20:13.095Z,94232.03
2023-02-25T02:23:03.805Z,94228.06
2023-02-25T02:25:52.844Z,94226.19
2023-02-25T02:28:53.887Z,94222.69
2023-02-25T02:31:50.963Z,94226.44
2023-02-25T02:34:30.346Z,94223.22
2023-02-25T02:37:08.732Z,94224.28
2023-02-25T02:39:49.933Z,94228.56
2023-02-25T02:42:27.443Z,94225.91
2023-02-25T02:45:01.534Z,94232.00
2023-02-25T02:47:35.264Z,94228.00
2023-02-25T02:50:07.275Z,94227.22
2023-02-25T02:52:39.756Z,94229.59
2023-02-25T02:55:11.250Z,94243.75
2023-02-25T02:57:42.346Z,94232.00
2023-02-25T03:00:17.699Z,94240.31
2023-02-25T03:02:53.096Z,94250.75
2023-02-25T03:05:21.082Z,94252.88
2023-02-25T03:07:56.895Z,94257.09
2023-02-25T03:10:26.351Z,94243.53
2023-02-25T03:12:54.199Z,94234.72
2023-02-25T03:15:22.414Z,94236.28
2023-02-25T03:17:55.557Z,94227.97
2023-02-25T03:20:28.192Z,94222.38
2023-02-25T03:22:59.710Z,94227.47
2023-02-25T03:25:31.845Z,94219.72
2023-02-25T03:28:04.837Z,94227.75
2023-02-25T03:30:36.487Z,94231.19
2023-02-25T03:33:09.737Z,94236.53
2023-02-25T03:35:41.183Z,94245.06
2023-02-25T03:38:17.942Z,94241.63
2023-02-25T03:40:48.589Z,94252.56
2023-02-25T03:43:22.721Z,94251.25
2023-02-25T03:45:50.678Z,94244.56
2023-02-25T03:48:23.538Z,94236.28
2023-02-25T03:50:55.792Z,94248.59
2023-02-25T03:53:23.831Z,94249.38
2023-02-25T03:55:51.614Z,94244.34
2023-02-25T03:58:19.364Z,94247.81
2023-02-25T04:00:50.187Z,94257.16
2023-02-25T04:03:19.386Z,94256.34
2023-02-25T04:05:48.630Z,94257.44
2023-02-25T04:08:16.900Z,94250.50
2023-02-25T04:10:45.045Z,94257.69
2023-02-25T04:13:16.486Z,94265.97
2023-02-25T04:15:45.701Z,94268.13
2023-02-25T04:18:16.282Z,94272.94
2023-02-25T04:20:45.881Z,94271.63
2023-02-25T04:23:15.208Z,94284.72
2023-02-25T04:25:43.573Z,94278.28
2023-02-25T04:28:11.535Z,94282.28
2023-02-25T04:30:39.473Z,94272.13
2023-02-25T04:33:07.192Z,94272.13
2023-02-25T04:35:35.007Z,94270.00
2023-02-25T04:38:04.117Z,94266.53
2023-02-25T04:40:31.832Z,94274.53
2023-02-25T04:42:59.625Z,94271.63
2023-02-25T04:45:27.553Z,94279.38
2023-02-25T04:47:57.866Z,94276.16
2023-02-25T04:50:27.372Z,94279.09
2023-02-25T04:52:55.092Z,94276.41
2023-02-25T04:55:24.129Z,94278.28
2023-02-25T04:57:53.915Z,94277.22
2023-02-25T05:00:24.255Z,94275.59
2023-02-25T05:02:52.344Z,94275.34
2023-02-25T05:05:20.596Z,94284.97
2023-02-25T05:07:48.902Z,94289.78
2023-02-25T05:10:16.950Z,94289.50
2023-02-25T05:12:45.996Z,94294.91
2023-02-25T05:15:16.212Z,94293.53
2023-02-25T05:17:43.884Z,94286.88
2023-02-25T05:20:13.092Z,94290.34
2023-02-25T05:22:44.667Z,94302.38
2023-02-25T05:25:15.890Z,94307.16
2023-02-25T05:27:43.636Z,94307.19
2023-02-25T05:30:13.980Z,94309.09
2023-02-25T05:32:42.329Z,94313.91
2023-02-25T05:35:13.328Z,94304.81
2023-02-25T05:37:41.031Z,94310.69
2023-02-25T05:40:10.293Z,94319.50
2023-02-25T05:42:38.463Z,94317.09
2023-02-25T05:45:14.850Z,94326.75
2023-02-25T05:47:43.995Z,94321.66
2023-02-25T05:50:12.479Z,94319.53
2023-02-25T05:52:40.233Z,94332.91
2023-02-25T05:55:09.863Z,94332.59
2023-02-25T05:57:37.712Z,94329.69
2023-02-25T06:00:09.882Z,94342.00
2023-02-25T06:02:38.125Z,94337.44
2023-02-25T06:05:08.726Z,94331.03
2023-02-25T06:07:36.442Z,94340.13
2023-02-25T06:10:07.849Z,94339.88
2023-02-25T06:12:38.180Z,94337.19
2023-02-25T06:15:06.612Z,94333.47
2023-02-25T06:17:34.437Z,94336.69
2023-02-25T06:20:02.324Z,94338.81
2023-02-25T06:22:33.747Z,94340.44
2023-02-25T06:25:01.676Z,94342.81
2023-02-25T06:27:31.081Z,94349.75
2023-02-25T06:30:03.872Z,94350.56
2023-02-25T06:32:31.778Z,94347.91
2023-02-25T06:34:59.665Z,94350.81
2023-02-25T06:37:27.555Z,94357.28
2023-02-25T06:39:56.636Z,94354.34
2023-02-25T06:42:24.414Z,94363.69
2023-02-25T06:44:52.397Z,94364.53
2023-02-25T06:47:20.187Z,94362.91
2023-02-25T06:49:47.873Z,94370.44
2023-02-25T06:52:15.955Z,94371.78
2023-02-25T06:54:43.681Z,94371.25
2023-02-25T06:57:12.846Z,94376.59
2023-02-25T06:59:40.524Z,94376.34
2023-02-25T07:02:08.646Z,94372.56
2023-02-25T07:04:36.584Z,94376.38
2023-02-25T07:07:04.331Z,94372.13
2023-02-25T07:09:32.095Z,94378.53
2023-02-25T07:12:00.089Z,94378.03
2023-02-25T07:14:29.241Z,94378.03
2023-02-25T07:16:56.991Z,94376.16
2023-02-25T07:19:24.728Z,94385.00
2023-02-25T07:21:52.496Z,94387.66
2023-02-25T07:24:20.205Z,94383.66
2023-02-25T07:26:48.017Z,94383.41
2023-02-25T07:29:15.759Z,94385.81
2023-02-25T07:31:45.863Z,94379.41
2023-02-25T07:34:16.271Z,94381.00
2023-02-25T07:36:44.008Z,94372.16
2023-02-25T07:39:13.537Z,94375.41
2023-02-25T07:41:41.363Z,94371.94
2023-02-25T07:44:09.382Z,94373.56
2023-02-25T07:46:38.778Z,94363.16
2023-02-25T07:49:08.069Z,94362.41
2023-02-25T07:51:35.901Z,94370.22
2023-02-25T07:54:06.198Z,94369.13
2023-02-25T07:56:33.941Z,94376.41
2023-02-25T07:59:01.777Z,94378.00
2023-02-25T08:01:31.839Z,94367.81
2023-02-25T08:04:04.241Z,94371.28
2023-02-25T08:06:36.101Z,94368.59
2023-02-25T08:09:05.722Z,94372.66
2023-02-25T08:11:33.472Z,94366.47
2023-02-25T08:14:01.678Z,94361.13
2023-02-25T08:16:30.015Z,94362.97
2023-02-25T08:18:57.796Z,94362.44
2023-02-25T08:21:26.692Z,94359.78
2023-02-25T08:23:56.025Z,94367.50
2023-02-25T08:26:27.155Z,94363.50
2023-02-25T08:28:55.138Z,94355.50
2023-02-25T08:31:23.523Z,94351.19
2023-02-25T08:33:52.771Z,94354.66
2023-02-25T08:36:22.989Z,94347.97
2023-02-25T08:38:51.691Z,94350.16
2023-02-25T08:41:22.744Z,94351.75
2023-02-25T08:43:51.407Z,94359.56
2023-02-25T08:46:21.197Z,94353.47
2023-02-25T08:48:50.713Z,94343.06
2023-02-25T08:51:19.673Z,94355.66
2023-02-25T08:53:47.520Z,94350.56
2023-02-25T08:56:19.858Z,94360.19
2023-02-25T08:58:48.981Z,94350.00
2023-02-25T09:01:18.262Z,94351.09
2023-02-25T09:03:52.271Z,94350.28
2023-02-25T09:06:22.886Z,94350.25
2023-02-25T09:08:51.054Z,94351.34
2023-02-25T09:11:23.106Z,94350.28
2023-02-25T09:13:53.191Z,94353.25
2023-02-25T09:16:23.364Z,94358.06
2023-02-25T09:18:52.359Z,94355.66
2023-02-25T09:21:24.388Z,94358.84
2023-02-25T09:23:55.184Z,94351.88
2023-02-25T09:26:23.605Z,94355.81
2023-02-25T09:28:52.830Z,94367.53
2023-02-25T09:31:20.880Z,94355.22
2023-02-25T09:33:48.752Z,94361.63
2023-02-25T09:36:21.625Z,94358.41
2023-02-25T09:38:51.818Z,94356.25
2023-02-25T09:41:33.359Z,94360.50
2023-02-25T09:44:08.684Z,94351.75
2023-02-25T09:46:41.443Z,94343.69
2023-02-25T09:49:16.568Z,94353.31
2023-02-25T09:51:49.555Z,94360.63
2023-02-25T09:54:22.141Z,94350.75
2023-02-25T09:56:51.366Z,94340.06
2023-02-25T09:59:22.300Z,94341.41
2023-02-25T10:01:57.966Z,94347.28
2023-02-25T10:04:33.156Z,94344.59
2023-02-25T10:07:10.391Z,94338.66
2023-02-25T10:09:49.706Z,94346.09
2023-02-25T10:12:28.291Z,94350.41
2023-02-25T10:15:13.229Z,94354.94
2023-02-25T10:17:49.026Z,94358.13
2023-02-25T10:20:38.602Z,94354.09
2023-02-25T10:23:13.839Z,94351.22
2023-02-25T10:25:49.273Z,94343.75
2023-02-25T10:28:18.612Z,94348.63
2023-02-25T10:30:51.502Z,94346.25
2023-02-25T10:33:24.454Z,94333.41
2023-02-25T10:35:58.630Z,94335.53
2023-02-25T10:38:26.394Z,94328.03
2023-02-25T10:40:57.784Z,94337.97
2023-02-25T10:43:27.603Z,94336.06
2023-02-25T10:46:02.503Z,94320.50
2023-02-25T10:48:32.222Z,94326.69
2023-02-25T10:51:06.698Z,94324.00
2023-02-25T10:53:35.215Z,94318.63
2023-02-25T10:56:03.851Z,94322.41
2023-02-25T10:58:40.875Z,94313.78
2023-02-25T11:01:14.901Z,94312.41
2023-02-25T11:03:54.259Z,94308.41
2023-02-25T11:06:26.158Z,94304.09
2023-02-25T11:08:56.335Z,94299.00
2023-02-25T11:11:26.578Z,94296.31
2023-02-25T11:14:06.524Z,94299.81
2023-02-25T11:16:38.536Z,94291.19
2023-02-25T11:19:18.137Z,94283.88
2023-02-25T11:21:47.034Z,94281.47
2023-02-25T11:24:17.832Z,94273.72
2023-02-25T11:26:48.109Z,94276.63
2023-02-25T11:29:18.928Z,94276.56
2023-02-25T11:31:52.463Z,94273.19
2023-02-25T11:34:25.584Z,94262.28
2023-02-25T11:36:53.854Z,94264.94
2023-02-25T11:39:23.644Z,94266.50
2023-02-25T11:41:52.743Z,94266.69
2023-02-25T11:44:24.549Z,94257.59
2023-02-25T11:47:09.045Z,94259.06
2023-02-25T11:49:53.896Z,94260.97
2023-02-25T11:52:28.550Z,94261.78
2023-02-25T11:55:12.779Z,94251.13
2023-02-25T11:57:50.521Z,94251.38
2023-02-25T12:00:26.044Z,94256.31
2023-02-25T12:03:11.187Z,94250.84
2023-02-25T12:05:53.985Z,94237.25
2023-02-25T12:08:40.203Z,94235.66
2023-02-25T12:11:32.193Z,94232.28
2023-02-25T12:14:42.994Z,94227.81
2023-02-25T12:17:39.179Z,94229.34
2023-02-25T12:20:52.798Z,94225.22
2023-02-25T12:23:50.056Z,94231.34
2023-02-25T12:26:35.860Z,94225.06
2023-02-25T12:29:16.875Z,94226.66
2023-02-25T12:32:08.515Z,94228.28
2023-02-25T12:35:10.645Z,94220.84
2023-02-25T12:38:08.838Z,94220.19
2023-02-25T12:40:57.241Z,94207.47
2023-02-25T12:43:34.938Z,94194.81
2023-02-25T12:46:15.573Z,94199.94
2023-02-25T12:49:21.899Z,94204.16
2023-02-25T12:52:15.965Z,94208.25
2023-02-25T12:55:18.434Z,94213.63
2023-02-25T12:57:55.588Z,94232.84
2023-02-25T13:00:43.713Z,94233.00
2023-02-25T13:03:26.981Z,94246.41
2023-02-25T13:06:08.556Z,94244.53
2023-02-25T13:09:01.173Z,94252.72
2023-02-25T13:12:09.487Z,94243.03
2023-02-25T13:14:41.126Z,94233.13
2023-02-25T13:17:29.058Z,94228.53
2023-02-25T13:20:26.437Z,94230.22
2023-02-25T13:23:09.451Z,94227.66
2023-02-25T13:25:54.235Z,94225.59
2023-02-25T13:28:35.463Z,94223.41
2023-02-25T13:31:09.916Z,94224.94
2023-02-25T13:34:00.377Z,94223.50
2023-02-25T13:36:48.439Z,94216.56
2023-02-25T13:39:33.003Z,94210.25
2023-02-25T13:42:25.338Z,94223.78
2023-02-25T13:45:19.876Z,94220.06
2023-02-25T13:48:06.404Z,94219.91
2023-02-25T13:50:46.652Z,94215.63
2023-02-25T13:53:33.882Z,94210.97
2023-02-25T13:56:29.543Z,94209.53
2023-02-25T13:59:13.039Z,94202.91
2023-02-25T14:01:56.428Z,94211.78
2023-02-25T14:04:55.472Z,94205.19
2023-02-25T14:07:48.786Z,94202.13
2023-02-25T14:10:33.013Z,94215.78
2023-02-25T14:13:39.561Z,94204.69
2023-02-25T14:16:18.696Z,94188.63
2023-02-25T14:19:08.161Z,94208.00
2023-02-25T14:22:16.338Z,94213.50
2023-02-25T14:24:51.860Z,94214.00
2023-02-25T14:27:30.025Z,94215.16
2023-02-25T14:30:14.842Z,94227.22
2023-02-25T14:32:55.041Z,94228.63
2023-02-25T14:36:04.013Z,94221.16
2023-02-25T14:38:42.117Z,94239.41
2023-02-25T14:41:28.508Z,94253.81
2023-02-25T14:44:00.538Z,94250.72
2023-02-25T14:46:35.781Z,94250.00
2023-02-25T14:49:10.677Z,94251.47
2023-02-25T14:52:09.289Z,94249.53
2023-02-25T14:55:18.812Z,94251.50
2023-02-25T14:58:13.620Z,94253.41
2023-02-25T15:01:04.924Z,94265.31
2023-02-25T15:04:12.133Z,94258.16
2023-02-25T15:07:03.606Z,94269.28
2023-02-25T15:09:48.115Z,94276.59
2023-02-25T15:12:35.944Z,94277.34
2023-02-25T15:15:35.039Z,94272.88
2023-02-25T15:18:28.886Z,94269.16
2023-02-25T15:20:57.378Z,94282.28
2023-02-25T15:23:43.390Z,94267.28
2023-02-25T15:26:22.529Z,94260.25
2023-02-25T15:28:51.095Z,94260.25
2023-02-25T15:31:31.533Z,94271.25
2023-02-25T15:34:37.457Z,94271.50
2023-02-25T15:37:30.226Z,94279.81
2023-02-25T15:39:59.006Z,94286.00
2023-02-25T15:42:46.899Z,94278.97
2023-02-25T15:45:37.908Z,94279.03
2023-02-25T15:48:32.608Z,94287.84
2023-02-25T15:51:01.977Z,94282.25
2023-02-25T15:53:48.339Z,94282.00
2023-02-25T15:56:30.777Z,94285.53
2023-02-25T15:59:00.447Z,94288.75
2023-02-25T16:01:39.427Z,94295.19
2023-02-25T16:04:29.184Z,94300.31
2023-02-25T16:07:00.207Z,94300.84
2023-02-25T16:09:29.011Z,94300.63
2023-02-25T16:12:04.852Z,94302.50
2023-02-25T16:14:36.873Z,94303.88
2023-02-25T16:17:10.309Z,94299.03
2023-02-25T16:19:40.567Z,94308.69
2023-02-25T16:22:15.328Z,94300.38
2023-02-25T16:24:48.058Z,94296.09
2023-02-25T16:27:26.842Z,94299.56
2023-02-25T16:30:03.947Z,94306.28
2023-02-25T16:32:40.207Z,94303.59
2023-02-25T16:35:14.763Z,94305.75
2023-02-25T16:37:51.377Z,94318.88
2023-02-25T16:40:23.796Z,94310.31
2023-02-25T16:42:53.091Z,94324.25
2023-02-25T16:45:27.393Z,94326.13
2023-02-25T16:47:58.724Z,94320.78
2023-02-25T16:50:31.533Z,94324.00
2023-02-25T16:53:00.260Z,94330.44
2023-02-25T16:55:34.449Z,94333.66
2023-02-25T16:58:07.230Z,94337.94
2023-02-25T17:00:41.273Z,94338.75
2023-02-25T17:03:12.051Z,94351.38
2023-02-25T17:05:41.176Z,94341.97
2023-02-25T17:08:16.708Z,94346.78
2023-02-25T17:10:45.209Z,94343.84
2023-02-25T17:13:17.212Z,94335.53
2023-02-25T17:15:45.982Z,94344.09
2023-02-25T17:18:21.950Z,94346.78
2023-02-25T17:20:51.296Z,94352.97
2023-02-25T17:23:19.502Z,94352.41
2023-02-25T17:25:52.585Z,94350.53
2023-02-25T17:28:23.505Z,94365.00
2023-02-25T17:30:52.138Z,94361.50
2023-02-25T17:33:25.187Z,94370.63
2023-02-25T17:35:58.393Z,94378.13
2023-02-25T17:38:29.001Z,94378.13
2023-02-25T17:40:59.154Z,94377.88
2023-02-25T17:43:35.384Z,94383.78
2023-02-25T17:46:11.358Z,94392.91
2023-02-25T17:48:43.440Z,94388.88
2023-02-25T17:51:13.770Z,94393.94
2023-02-25T17:53:46.936Z,94395.31
2023-02-25T17:56:22.596Z,94399.31
2023-02-25T17:58:51.449Z,94416.47
2023-02-25T18:01:23.045Z,94415.66
2023-02-25T18:03:52.905Z,94434.38
2023-02-25T18:06:35.503Z,94448.72
2023-02-25T18:09:03.526Z,94455.97
2023-02-25T18:11:37.063Z,94470.09
2023-02-25T18:14:25.156Z,94474.94
2023-02-25T18:16:53.651Z,94476.31
2023-02-25T18:19:35.810Z,94487.69
2023-02-25T18:22:05.837Z,94492.16
2023-02-25T18:24:35.439Z,94486.41
2023-02-25T18:27:22.043Z,94496.28
2023-02-25T18:29:49.737Z,94506.09
2023-02-25T18:32:17.569Z,94508.53
2023-02-25T18:34:46.303Z,94517.03
2023-02-25T18:37:17.944Z,94519.63
2023-02-25T18:39:48.553Z,94514.72
2023-02-25T18:42:18.705Z,94513.69
2023-02-25T18:44:47.597Z,94510.13
2023-02-25T18:47:16.708Z,94516.59
2023-02-25T18:49:45.691Z,94517.69
2023-02-25T18:52:21.444Z,94514.63
2023-02-25T18:54:49.591Z,94520.25
2023-02-25T18:57:21.299Z,94506.09
2023-02-25T18:59:49.127Z,94511.44
2023-02-25T19:02:26.599Z,94504.47
2023-02-25T19:04:55.407Z,94513.16
2023-02-25T19:07:27.964Z,94510.41
2023-02-25T19:09:56.268Z,94511.72
2023-02-25T19:12:25.845Z,94517.63
2023-02-25T19:14:59.725Z,94515.50
2023-02-25T19:17:29.004Z,94512.84
2023-02-25T19:19:57.446Z,94517.88
2023-02-25T19:22:27.157Z,94517.28
2023-02-25T19:24:54.986Z,94518.88
2023-02-25T19:27:24.822Z,94518.63
2023-02-25T19:29:54.749Z,94522.09
2023-02-25T19:32:22.607Z,94519.69
2023-02-25T19:34:50.699Z,94518.88
2023-02-25T19:37:21.070Z,94526.31
2023-02-25T19:39:50.223Z,94538.25
2023-02-25T19:42:17.962Z,94532.22
2023-02-25T19:44:45.658Z,94530.03
2023-02-25T19:47:13.346Z,94532.94
2023-02-25T19:49:41.184Z,94541.00
2023-02-25T19:52:08.945Z,94533.75
2023-02-25T19:54:36.733Z,94523.63
2023-02-25T19:57:05.930Z,94529.53
2023-02-25T19:59:33.691Z,94534.06
2023-02-25T20:02:01.473Z,94530.97
2023-02-25T20:04:29.209Z,94530.97
2023-02-25T20:06:57.007Z,94533.38
2023-02-25T20:09:24.754Z,94522.94
2023-02-25T20:11:52.907Z,94529.41
2023-02-25T20:14:23.002Z,94532.00
2023-02-25T20:16:51.044Z,94535.00
2023-02-25T20:19:18.921Z,94524.25
2023-02-25T20:21:46.972Z,94531.44
2023-02-25T20:24:14.967Z,94531.53
2023-02-25T20:26:44.970Z,94526.19
2023-02-25T20:29:12.721Z,94526.19
2023-02-25T20:31:42.186Z,94528.13
2023-02-25T20:34:13.911Z,94524.66
2023-02-25T20:36:47.937Z,94523.59
2023-02-25T20:39:50.463Z,94525.25
2023-02-25T20:42:20.657Z,94530.78
2023-02-25T20:44:51.202Z,94527.56
2023-02-25T20:47:24.217Z,94526.06
2023-02-25T20:49:54.849Z,94525.47
2023-02-25T20:52:23.296Z,94524.66
2023-02-25T20:54:51.865Z,94527.31
2023-02-25T20:57:21.675Z,94530.22
2023-02-25T20:59:50.001Z,94535.31
2023-02-25T21:02:18.562Z,94548.22
2023-02-25T21:04:48.510Z,94548.16
2023-02-25T21:07:16.412Z,94552.03
2023-02-25T21:09:44.300Z,94557.78
2023-02-25T21:12:12.137Z,94562.78
2023-02-25T21:14:39.956Z,94556.50
2023-02-25T21:17:09.599Z,94559.63
2023-02-25T21:19:38.794Z,94561.06
2023-02-25T21:22:11.368Z,94564.22
2023-02-25T21:24:39.581Z,94570.84
2023-02-25T21:27:07.620Z,94569.28
2023-02-25T21:29:35.768Z,94563.97
2023-02-25T21:32:03.556Z,94566.97
2023-02-25T21:34:31.876Z,94565.59
2023-02-25T21:36:59.677Z,94564.78
2023-02-25T21:39:29.321Z,94562.78
2023-02-25T21:41:57.083Z,94558.00
2023-02-25T21:44:24.957Z,94561.72
2023-02-25T21:46:52.717Z,94564.28
2023-02-25T21:49:20.521Z,94568.91
2023-02-25T21:51:48.295Z,94571.00
2023-02-25T21:54:16.519Z,94562.28
2023-02-25T21:56:45.777Z,94565.44
2023-02-25T21:59:13.711Z,94564.28
2023-02-25T22:01:42.817Z,94568.59
2023-02-25T22:04:11.214Z,94571.09
2023-02-25T22:06:39.232Z,94558.66
2023-02-25T22:09:07.405Z,94561.59
2023-02-25T22:11:37.713Z,94561.00
2023-02-25T22:14:09.066Z,94552.44
2023-02-25T22:16:38.382Z,94559.72
2023-02-25T22:19:06.325Z,94555.97
2023-02-25T22:21:35.963Z,94558.16
2023-02-25T22:24:06.422Z,94559.97
2023-02-25T22:26:35.681Z,94561.63
2023-02-25T22:29:06.496Z,94560.78
2023-02-25T22:31:35.111Z,94548.38
2023-02-25T22:34:03.582Z,94557.59
2023-02-25T22:36:31.466Z,94563.03
2023-02-25T22:38:59.419Z,94563.44
2023-02-25T22:41:29.266Z,94567.28
2023-02-25T22:43:58.961Z,94561.41
2023-02-25T22:46:29.808Z,94568.41
2023-02-25T22:48:57.839Z,94573.34
2023-02-25T22:51:28.217Z,94573.91
2023-02-25T22:53:56.387Z,94572.88
2023-02-25T23:00:45.833Z,94577.47
2023-02-25T23:03:13.852Z,94577.94
2023-02-25T23:05:41.681Z,94581.41
2023-02-25T23:08:12.118Z,94581.41
2023-02-25T23:10:39.898Z,94579.31
2023-02-25T23:13:11.567Z,94583.84
2023-02-25T23:15:41.562Z,94588.25
2023-02-25T23:18:10.945Z,94588.03
2023-02-25T23:20:40.633Z,94589.63
2023-02-25T23:23:09.431Z,94598.53
2023-02-25T23:25:40.189Z,94592.88
2023-02-25T23:28:09.249Z,94594.41
2023-02-25T23:30:38.601Z,94596.19
2023-02-25T23:35:36.934Z,94596.66
2023-02-25T23:38:04.719Z,94594.78
2023-02-25T23:40:33.073Z,94596.06
2023-02-25T23:43:00.783Z,94601.06
2023-02-25T23:45:28.657Z,94594.47
2023-02-25T23:47:56.464Z,94599.13
2023-02-25T23:50:24.762Z,94592.59
2023-02-25T23:52:54.628Z,94592.63
2023-02-25T23:55:22.714Z,94594.94
2023-02-25T23:57:52.199Z,94594.47
